createdAt,value
2023-02-25T00:02:32.080Z,97.81
2023-02-25T00:07:54.607Z,96.64
2023-02-25T00:13:18.562Z,95.98
2023-02-25T00:18:40.846Z,95.30
2023-02-25T00:24:15.551Z,94.88
2023-02-25T00:29:38.166Z,94.33
2023-02-25T00:35:00.213Z,95.14
2023-02-25T00:40:22.091Z,95.13
2023-02-25T00:45:43.949Z,95.53
2023-02-25T00:51:08.458Z,94.68
2023-02-25T00:56:30.326Z,94.85
2023-02-25T01:01:52.656Z,93.91
2023-02-25T01:07:14.764Z,93.97
2023-02-25T01:12:37.594Z,94.96
2023-02-25T01:17:59.410Z,95.30
2023-02-25T01:23:21.281Z,94.32
2023-02-25T01:28:43.218Z,95.47
2023-02-25T01:34:07.149Z,97.37
2023-02-25T01:39:29.937Z,98.04
2023-02-25T01:45:16.756Z,98.74
2023-02-25T01:50:52.385Z,99.12
2023-02-25T01:56:19.925Z,99.81
2023-02-25T02:01:43.596Z,100.00
2023-02-25T02:07:06.220Z,100.00
2023-02-25T02:12:39.931Z,100.00
2023-02-25T02:18:03.204Z,100.00
2023-02-25T02:24:03.172Z,100.00
2023-02-25T02:29:55.884Z,100.00
2023-02-25T02:35:36.456Z,100.00
2023-02-25T02:41:15.342Z,100.00
2023-02-25T02:46:52.865Z,100.00
2023-02-25T02:52:20.959Z,100.00
2023-02-25T02:57:43.463Z,100.00
2023-02-25T03:03:10.911Z,100.00
2023-02-25T03:08:38.572Z,100.00
2023-02-25T03:14:00.434Z,100.00
2023-02-25T03:19:31.577Z,100.00
2023-02-25T03:25:05.692Z,100.00
2023-02-25T03:30:50.580Z,100.00
2023-02-25T03:36:18.762Z,100.00
2023-02-25T03:41:44.297Z,100.00
2023-02-25T03:47:08.400Z,100.00
2023-02-25T03:52:30.685Z,100.00
2023-02-25T03:57:52.561Z,100.00
2023-02-25T04:03:14.443Z,100.00
2023-02-25T04:08:36.285Z,100.00
2023-02-25T04:13:58.118Z,100.00
2023-02-25T04:19:19.945Z,100.00
2023-02-25T04:24:41.804Z,100.00
2023-02-25T04:30:05.097Z,100.00
2023-02-25T04:35:27.152Z,100.00
2023-02-25T04:40:51.604Z,100.00
2023-02-25T04:46:14.093Z,100.00
2023-02-25T04:51:38.012Z,100.00
2023-02-25T04:56:59.852Z,100.00
2023-02-25T05:02:21.763Z,100.00
2023-02-25T05:07:43.739Z,100.00
2023-02-25T05:13:05.579Z,100.00
2023-02-25T05:18:27.402Z,100.00
2023-02-25T05:23:51.523Z,100.00
2023-02-25T05:29:13.379Z,100.00
2023-02-25T05:34:35.224Z,100.00
2023-02-25T05:39:57.088Z,100.00
2023-02-25T05:45:19.162Z,100.00
2023-02-25T05:50:41.068Z,100.00
2023-02-25T05:56:12.671Z,100.00
2023-02-25T06:01:34.495Z,100.00
2023-02-25T06:06:56.317Z,100.00
2023-02-25T06:12:18.142Z,100.00
2023-02-25T06:17:40.414Z,100.00
2023-02-25T06:23:03.651Z,100.00
2023-02-25T06:28:25.637Z,100.00
2023-02-25T06:33:47.507Z,100.00
2023-02-25T06:39:09.352Z,100.00
2023-02-25T06:44:31.214Z,100.00
2023-02-25T06:49:55.745Z,100.00
2023-02-25T06:55:17.695Z,100.00
2023-02-25T07:00:39.600Z,100.00
2023-02-25T07:06:01.512Z,100.00
2023-02-25T07:11:30.067Z,100.00
2023-02-25T07:16:51.931Z,100.00
2023-02-25T07:22:16.119Z,100.00
2023-02-25T07:27:44.225Z,100.00
2023-02-25T07:33:06.707Z,100.00
2023-02-25T07:38:28.601Z,100.00
2023-02-25T07:43:50.536Z,100.00
2023-02-25T07:49:12.412Z,100.00
2023-02-25T07:54:34.274Z,100.00
2023-02-25T07:59:56.445Z,100.00
2023-02-25T08:05:18.482Z,100.00
2023-02-25T08:10:40.450Z,100.00
2023-02-25T08:16:09.068Z,100.00
2023-02-25T08:21:31.902Z,100.00
2023-02-25T08:26:53.787Z,100.00
2023-02-25T08:32:15.735Z,100.00
2023-02-25T08:37:37.664Z,100.00
2023-02-25T08:42:59.587Z,100.00
2023-02-25T08:48:21.472Z,100.00
2023-02-25T08:53:43.421Z,100.00
2023-02-25T08:59:05.320Z,100.00
2023-02-25T09:04:27.222Z,100.00
2023-02-25T09:09:49.232Z,100.00
2023-02-25T09:15:12.239Z,100.00
2023-02-25T09:20:34.124Z,100.00
2023-02-25T09:25:56.015Z,100.00
2023-02-25T09:31:18.628Z,99.97
2023-02-25T09:36:41.202Z,99.89
2023-02-25T09:42:09.713Z,98.06
2023-02-25T09:47:50.298Z,98.20
2023-02-25T09:53:34.020Z,91.28
2023-02-25T09:58:59.678Z,93.80
2023-02-25T10:04:29.889Z,89.98
2023-02-25T10:10:00.129Z,87.65
2023-02-25T10:15:52.712Z,89.19
2023-02-25T10:21:55.836Z,89.49
2023-02-25T10:27:24.259Z,86.23
2023-02-25T10:32:46.626Z,87.26
2023-02-25T10:38:11.105Z,86.38
2023-02-25T10:43:34.380Z,85.65
2023-02-25T10:49:20.700Z,90.99
2023-02-25T10:54:49.843Z,98.42
2023-02-25T11:00:26.749Z,97.92
2023-02-25T11:05:48.622Z,95.29
2023-02-25T11:11:20.434Z,93.96
2023-02-25T11:16:44.443Z,93.78
2023-02-25T11:22:15.865Z,92.45
2023-02-25T11:27:40.924Z,93.15
2023-02-25T11:33:24.480Z,92.02
2023-02-25T11:38:47.722Z,93.24
2023-02-25T11:44:38.943Z,94.17
2023-02-25T11:50:25.054Z,94.93
2023-02-25T11:55:49.967Z,95.66
2023-02-25T12:01:41.197Z,94.09
2023-02-25T12:07:37.237Z,90.60
2023-02-25T12:13:01.860Z,90.15
2023-02-25T12:19:09.001Z,89.35
2023-02-25T12:25:08.057Z,92.29
2023-02-25T12:30:48.165Z,93.12
2023-02-25T12:36:31.150Z,93.38
2023-02-25T12:41:55.713Z,92.45
2023-02-25T12:47:37.751Z,91.08
2023-02-25T12:53:25.860Z,88.75
2023-02-25T12:59:20.208Z,91.30
2023-02-25T13:05:12.853Z,95.65
2023-02-25T13:10:39.370Z,95.97
2023-02-25T13:16:19.954Z,100.00
2023-02-25T13:21:52.876Z,97.73
2023-02-25T13:27:39.552Z,97.23
2023-02-25T13:33:01.319Z,95.85
2023-02-25T13:38:27.621Z,93.20
2023-02-25T13:43:55.215Z,90.46
2023-02-25T13:49:57.236Z,87.34
2023-02-25T13:55:44.040Z,91.81
2023-02-25T14:01:43.521Z,91.73
2023-02-25T14:07:23.402Z,92.62
2023-02-25T14:13:09.819Z,92.85
2023-02-25T14:18:43.577Z,97.48
2023-02-25T14:24:34.473Z,96.81
2023-02-25T14:30:32.528Z,93.02
2023-02-25T14:36:09.289Z,91.05
2023-02-25T14:41:57.690Z,90.76
2023-02-25T14:47:34.211Z,92.52
2023-02-25T14:53:29.107Z,93.57
2023-02-25T14:59:06.324Z,94.13
2023-02-25T15:04:36.868Z,96.33
2023-02-25T15:10:13.083Z,94.32
2023-02-25T15:15:54.906Z,96.68
2023-02-25T15:21:35.589Z,97.45
2023-02-25T15:26:58.237Z,99.30
2023-02-25T15:32:23.118Z,99.40
2023-02-25T15:37:50.790Z,98.84
2023-02-25T15:43:12.573Z,99.08
2023-02-25T15:48:37.312Z,100.00
2023-02-25T15:53:59.428Z,100.00
2023-02-25T15:59:39.966Z,100.00
2023-02-25T16:05:17.202Z,100.00
2023-02-25T16:10:49.489Z,100.00
2023-02-25T16:16:13.103Z,100.00
2023-02-25T16:21:41.000Z,100.00
2023-02-25T16:27:17.961Z,100.00
2023-02-25T16:33:12.264Z,100.00
2023-02-25T16:39:04.859Z,100.00
2023-02-25T16:44:34.253Z,100.00
2023-02-25T16:49:58.286Z,100.00
2023-02-25T16:55:27.604Z,100.00
2023-02-25T17:00:53.874Z,100.00
2023-02-25T17:06:19.160Z,100.00
2023-02-25T17:11:41.096Z,100.00
2023-02-25T17:17:03.034Z,100.00
2023-02-25T17:22:25.363Z,100.00
2023-02-25T17:27:49.767Z,100.00
2023-02-25T17:33:31.959Z,100.00
2023-02-25T17:39:00.709Z,100.00
2023-02-25T17:44:37.729Z,100.00
2023-02-25T17:50:13.176Z,100.00
2023-02-25T17:55:35.181Z,100.00
2023-02-25T18:01:01.085Z,100.00
2023-02-25T18:06:46.048Z,100.00
2023-02-25T18:12:22.542Z,100.00
2023-02-25T18:17:55.194Z,100.00
2023-02-25T18:23:24.392Z,100.00
2023-02-25T18:28:46.971Z,100.00
2023-02-25T18:34:08.828Z,100.00
2023-02-25T18:39:30.730Z,100.00
2023-02-25T18:44:52.710Z,100.00
2023-02-25T18:50:15.169Z,100.00
2023-02-25T18:55:37.016Z,100.00
2023-02-25T19:00:59.503Z,100.00
2023-02-25T19:06:21.467Z,100.00
2023-02-25T19:11:43.417Z,100.00
2023-02-25T19:17:05.331Z,100.00
2023-02-25T19:22:27.197Z,100.00
2023-02-25T19:27:49.969Z,100.00
2023-02-25T19:33:12.744Z,100.00
2023-02-25T19:38:34.619Z,100.00
2023-02-25T19:43:56.453Z,100.00
2023-02-25T19:49:18.351Z,100.00
2023-02-25T19:54:40.198Z,100.00
2023-02-25T20:00:02.038Z,100.00
2023-02-25T20:05:24.755Z,100.00
2023-02-25T20:10:46.594Z,100.00
2023-02-25T20:16:08.572Z,100.00
2023-02-25T20:21:30.403Z,100.00
2023-02-25T20:26:52.533Z,100.00
2023-02-25T20:32:14.568Z,100.00
2023-02-25T20:37:43.849Z,100.00
2023-02-25T20:43:05.835Z,100.00
2023-02-25T20:48:30.205Z,100.00
2023-02-25T20:53:52.748Z,100.00
2023-02-25T20:59:15.605Z,100.00
2023-02-25T21:04:37.832Z,100.00
2023-02-25T21:09:59.642Z,100.00
2023-02-25T21:15:21.477Z,100.00
2023-02-25T21:20:43.318Z,100.00
2023-02-25T21:26:07.082Z,100.00
2023-02-25T21:31:28.992Z,100.00
2023-02-25T21:36:50.903Z,100.00
2023-02-25T21:42:12.756Z,100.00
2023-02-25T21:47:34.560Z,100.00
2023-02-25T21:52:56.583Z,100.00
2023-02-25T21:58:18.473Z,100.00
2023-02-25T22:03:40.363Z,100.00
2023-02-25T22:09:02.706Z,100.00
2023-02-25T22:14:24.567Z,100.00
2023-02-25T22:19:46.406Z,100.00
2023-02-25T22:25:08.423Z,100.00
2023-02-25T22:30:30.288Z,100.00
2023-02-25T22:36:01.356Z,100.00
2023-02-25T22:41:28.526Z,100.00
2023-02-25T22:46:50.437Z,100.00
2023-02-25T22:52:12.325Z,100.00
2023-02-25T22:57:34.212Z,100.00
2023-02-25T23:02:56.088Z,100.00
2023-02-25T23:08:18.161Z,100.00
2023-02-25T23:13:42.015Z,100.00
2023-02-25T23:19:04.987Z,100.00
2023-02-25T23:24:26.882Z,99.81
2023-02-25T23:29:48.743Z,99.30
2023-02-25T23:35:10.838Z,99.24
2023-02-25T23:40:32.740Z,98.75
2023-02-25T23:45:54.614Z,98.08
2023-02-25T23:51:16.463Z,98.92
2023-02-25T23:56:38.284Z,99.43
